Time;durP1;ratioP1;P1;durP2;ratioP2;P2;SDS_P1;SDS_P2;PMS_P1;PMS_P2;Temp;Humidity;BMP_temperature;BMP_pressure;BME280_temperature;BME280_humidity;BME280_pressure;Samples;Min_cycle;Max_cycle;Signal;HPM_P1;HPM_P2
2022/06/29 00:00:03;;;;;;;48.88;45.67;;;;;;;21.11;100.00;101121.47;5078026;28;20040;-89
2022/06/29 00:02:35;;;;;;;41.33;38.63;;;;;;;21.01;100.00;101133.88;5075369;28;20110;-90
2022/06/29 00:05:15;;;;;;;49.80;46.33;;;;;;;21.05;100.00;101132.25;5075855;28;20060;-87
2022/06/29 00:07:49;;;;;;;45.83;42.50;;;;;;;21.05;100.00;101129.56;5061344;28;20055;-87
2022/06/29 00:10:28;;;;;;;48.35;44.95;;;;;;;21.14;100.00;101137.16;5075275;28;20479;-87
2022/06/29 00:13:01;;;;;;;45.33;41.83;;;;;;;20.50;100.00;101130.94;5074523;28;20044;-86
2022/06/29 00:15:42;;;;;;;52.20;48.42;;;;;;;20.24;100.00;101142.66;5073055;28;20539;-88
2022/06/29 00:18:22;;;;;;;43.92;40.35;;;;;;;20.96;100.00;101141.94;5071198;28;20063;-86
2022/06/29 00:21:14;;;;;;;39.90;36.67;;;;;;;20.57;100.00;101136.13;5071350;28;20055;-88
2022/06/29 00:23:58;;;;;;;51.42;47.63;;;;;;;20.53;100.00;101130.44;5073366;28;20048;-88
2022/06/29 00:26:43;;;;;;;58.88;54.35;;;;;;;20.26;100.00;101135.13;5072396;28;20041;-87
2022/06/29 00:29:19;;;;;;;59.30;54.92;;;;;;;20.61;100.00;101131.84;5058385;28;20049;-87
2022/06/29 00:31:48;;;;;;;57.97;53.75;;;;;;;20.58;100.00;101145.84;5074146;28;20044;-87
2022/06/29 00:34:25;;;;;;;55.13;51.03;;;;;;;20.67;100.00;101133.50;5073363;28;20078;-87
2022/06/29 00:36:57;;;;;;;53.90;49.88;;;;;;;20.32;100.00;101126.78;5067496;28;20048;-89
2022/06/29 00:39:29;;;;;;;;;;;;;;;20.41;100.00;101120.91;5075210;28;20083;-88
2022/06/29 00:42:17;;;;;;;63.88;58.97;;;;;;;20.34;100.00;101126.53;5075617;28;19920;-87
2022/06/29 00:44:51;;;;;;;57.25;52.85;;;;;;;20.12;100.00;101119.41;5075260;28;20052;-87
2022/06/29 00:47:22;;;;;;;59.53;55.13;;;;;;;20.09;100.00;101128.00;5074056;28;20052;-86
2022/06/29 00:49:50;;;;;;;62.25;57.25;;;;;;;19.76;100.00;101122.88;5075563;28;20052;-88
2022/06/29 00:52:33;;;;;;;62.03;57.20;;;;;;;20.07;100.00;101127.44;5073708;28;20040;-87
2022/06/29 00:55:24;;;;;;;54.65;50.30;;;;;;;20.24;100.00;101123.75;5074478;28;20040;-86
2022/06/29 00:58:06;;;;;;;56.55;52.00;;;;;;;20.07;100.00;101115.84;5074210;28;20124;-88
2022/06/29 01:00:44;;;;;;;64.13;59.03;;;;;;;20.08;100.00;101126.38;5074892;28;20055;-88
2022/06/29 01:03:16;;;;;;;62.65;57.70;;;;;;;19.93;100.00;101114.66;5071677;28;20067;-86
2022/06/29 01:05:52;;;;;;;76.75;71.20;;;;;;;19.78;100.00;101115.38;5065434;28;20098;-88
2022/06/29 01:08:32;;;;;;;61.28;56.30;;;;;;;19.88;100.00;101107.38;5065277;28;20084;-87
2022/06/29 01:11:18;;;;;;;61.58;56.58;;;;;;;18.96;100.00;101101.91;5060685;28;20040;-86
2022/06/29 01:14:00;;;;;;;58.33;53.42;;;;;;;19.38;100.00;101097.75;5066706;28;20045;-87
2022/06/29 01:16:32;;;;;;;55.40;50.60;;;;;;;19.81;100.00;101110.25;5066939;28;20548;-88
2022/06/29 01:19:08;;;;;;;57.38;52.58;;;;;;;19.94;100.00;101111.72;5069074;28;20127;-88
2022/06/29 01:21:42;;;;;;;57.35;52.92;;;;;;;20.06;100.00;101115.06;5073086;28;20044;-88
2022/06/29 01:24:15;;;;;;;59.90;54.70;;;;;;;19.58;100.00;101105.22;5070731;28;20091;-87
2022/06/29 01:29:58;;;;;;;49.03;44.63;;;;;;;19.60;100.00;101097.66;5033186;28;20111;-86
2022/06/29 01:32:38;;;;;;;;;;;;;;;;;;;;;
2022/06/29 01:35:23;;;;;;;51.67;47.22;;;;;;;19.77;100.00;101102.97;5060520;28;20055;-88
2022/06/29 01:38:07;;;;;;;51.35;46.85;;;;;;;19.79;100.00;101109.72;5068850;28;20048;-86
2022/06/29 01:40:49;;;;;;;57.92;53.33;;;;;;;19.48;100.00;101103.22;5074154;28;20049;-85
2022/06/29 01:43:25;;;;;;;65.28;59.70;;;;;;;19.44;100.00;101104.81;5071134;28;20055;-87
2022/06/29 01:46:08;;;;;;;63.85;58.65;;;;;;;19.01;100.00;101113.81;5054422;28;20053;-88
2022/06/29 01:48:41;;;;;;;62.97;57.38;;;;;;;19.16;100.00;101120.16;5059298;28;20048;-86
2022/06/29 01:51:17;;;;;;;52.70;47.92;;;;;;;19.32;100.00;101104.97;5069902;28;20049;-88
2022/06/29 01:53:49;;;;;;;57.67;52.80;;;;;;;18.93;100.00;101109.66;5068607;28;20045;-87
2022/06/29 01:56:39;;;;;;;54.85;49.95;;;;;;;19.05;100.00;101104.97;5072916;28;20461;-88
2022/06/29 01:59:08;;;;;;;55.25;50.70;;;;;;;18.56;100.00;101114.84;5065152;28;20040;-87
2022/06/29 02:01:35;;;;;;;56.67;52.20;;;;;;;18.50;100.00;101113.97;5160100;22;20061;-86
2022/06/29 02:04:02;;;;;;;67.25;61.70;;;;;;;18.56;100.00;101112.16;5025068;28;21031;-87
2022/06/29 02:06:29;;;;;;;61.72;56.78;;;;;;;18.29;100.00;101124.44;5024263;28;20049;-87
2022/06/29 02:09:04;;;;;;;62.05;56.85;;;;;;;18.34;100.00;101128.28;5032506;28;20046;-87
2022/06/29 02:11:37;;;;;;;72.05;66.15;;;;;;;18.40;100.00;101127.28;5022655;28;20056;-88
2022/06/29 02:14:05;;;;;;;80.05;73.65;;;;;;;18.03;100.00;101125.94;5034857;28;20049;-87
2022/06/29 02:16:55;;;;;;;90.00;83.30;;;;;;;18.04;100.00;101124.06;5034633;28;20049;-87
2022/06/29 02:19:22;;;;;;;91.13;84.32;;;;;;;17.89;100.00;101126.53;5020105;28;20037;-86
2022/06/29 02:21:52;;;;;;;86.68;80.15;;;;;;;18.23;100.00;101125.41;5022671;28;20046;-88
2022/06/29 02:24:28;;;;;;;81.00;74.50;;;;;;;18.02;100.00;101128.88;5028637;28;20053;-87
2022/06/29 02:27:02;;;;;;;74.35;68.45;;;;;;;17.80;100.00;101128.78;5021410;28;20514;-83
2022/06/29 02:29:40;;;;;;;61.28;56.08;;;;;;;17.54;100.00;101140.94;5026650;28;20064;-87
2022/06/29 02:35:45;;;;;;;75.97;69.75;;;;;;;18.05;100.00;101131.88;5035500;28;20056;-89
2022/06/29 02:38:18;;;;;;;73.05;67.40;;;;;;;18.02;100.00;101134.25;5039625;28;20477;-87
2022/06/29 02:40:46;;;;;;;67.47;61.85;;;;;;;18.17;100.00;101137.16;5034643;28;20053;-87
2022/06/29 02:43:20;;;;;;;58.97;54.30;;;;;;;17.85;100.00;101148.50;5025717;28;20056;-87
2022/06/29 02:45:59;;;;;;;77.63;71.47;;;;;;;20.55;100.00;101130.19;5039129;28;20046;-85
2022/06/29 02:48:33;;;;;;;43.83;40.15;;;;;;;19.48;100.00;101135.53;5024350;28;20050;-86
2022/06/29 02:51:08;;;;;;;47.35;43.35;;;;;;;17.28;100.00;101137.00;5036391;28;20057;-87
2022/06/29 02:53:43;;;;;;;61.25;56.45;;;;;;;17.04;100.00;101142.44;5026236;28;20050;-86
2022/06/29 02:56:24;;;;;;;72.35;66.68;;;;;;;17.51;100.00;101139.53;5036775;28;20045;-86
2022/06/29 02:58:54;;;;;;;66.25;60.95;;;;;;;17.45;100.00;101145.88;5037729;28;20042;-86
2022/06/29 03:01:20;;;;;;;68.30;62.83;;;;;;;17.54;100.00;101144.44;5037235;28;20084;-87
2022/06/29 03:04:00;;;;;;;67.80;62.22;;;;;;;17.28;100.00;101145.03;5031692;28;20057;-86
2022/06/29 03:06:42;;;;;;;60.22;55.28;;;;;;;17.06;100.00;101147.56;5034997;28;20466;-86
2022/06/29 03:09:10;;;;;;;59.35;54.45;;;;;;;16.95;100.00;101149.25;5034590;28;20046;-87
2022/06/29 03:11:41;;;;;;;58.95;53.92;;;;;;;16.99;100.00;101150.38;5035163;28;20046;-87
2022/06/29 03:14:15;;;;;;;67.70;62.40;;;;;;;17.39;100.00;101147.66;5038162;28;20072;-86
2022/06/29 03:16:42;;;;;;;68.05;62.47;;;;;;;17.06;100.00;101151.06;5035364;28;20057;-86
2022/06/29 03:19:09;;;;;;;64.35;58.70;;;;;;;17.26;100.00;101142.59;5022405;28;20068;-86
2022/06/29 03:21:37;;;;;;;60.28;55.00;;;;;;;17.65;100.00;101147.31;5033547;28;20050;-87
2022/06/29 03:24:06;;;;;;;60.10;55.15;;;;;;;17.85;100.00;101147.66;5027188;28;20062;-87
2022/06/29 03:27:00;;;;;;;59.63;54.75;;;;;;;17.58;100.00;101148.28;5018980;28;20049;-86
2022/06/29 03:29:32;;;;;;;63.58;58.58;;;;;;;17.95;100.00;101149.72;5018114;28;20057;-85
2022/06/29 03:32:07;;;;;;;57.88;53.15;;;;;;;18.12;100.00;101145.13;5037465;28;20080;-85
2022/06/29 03:34:36;;;;;;;54.75;50.33;;;;;;;18.25;100.00;101147.50;5037905;28;20135;-85
2022/06/29 03:37:04;;;;;;;64.35;59.17;;;;;;;17.99;100.00;101148.16;5017920;28;20065;-86
2022/06/29 03:39:33;;;;;;;64.55;59.13;;;;;;;18.41;100.00;101148.53;5028079;28;20056;-86
2022/06/29 03:42:37;;;;;;;63.67;58.58;;;;;;;18.58;100.00;101148.50;5027834;28;20054;-86
2022/06/29 03:45:09;;;;;;;57.45;53.05;;;;;;;18.43;100.00;101151.78;5020534;28;20124;-86
2022/06/29 03:47:44;;;;;;;68.90;63.65;;;;;;;18.54;100.00;101144.66;5023367;28;20050;-86
2022/06/29 03:50:12;;;;;;;59.75;55.35;;;;;;;18.59;100.00;101139.38;5023013;28;20056;-86
2022/06/29 03:52:49;;;;;;;54.97;50.80;;;;;;;18.64;100.00;101141.28;5020994;28;20050;-86
2022/06/29 03:55:17;;;;;;;51.85;48.15;;;;;;;18.81;100.00;101146.66;5041842;28;20401;-86
2022/06/29 03:57:47;;;;;;;54.92;50.83;;;;;;;18.77;100.00;101149.03;5040817;28;20042;-86
2022/06/29 04:00:23;;;;;;;49.95;46.15;;;;;;;18.76;100.00;101148.25;5026116;28;20065;-85
2022/06/29 04:03:37;;;;;;;52.95;48.58;;;;;;;18.88;100.00;101141.91;5020991;28;20058;-85
2022/06/29 04:06:28;;;;;;;52.45;48.65;;;;;;;19.04;100.00;101142.91;5032180;28;20065;-85
2022/06/29 04:09:01;;;;;;;55.20;51.08;;;;;;;19.27;100.00;101139.91;5027540;28;20049;-86
2022/06/29 04:14:16;;;;;;;55.40;51.08;;;;;;;19.29;100.00;101139.69;5038247;28;20081;-87
2022/06/29 04:16:58;;;;;;;53.30;49.15;;;;;;;19.16;100.00;101146.28;5028717;28;20049;-85
2022/06/29 04:19:35;;;;;;;55.93;51.93;;;;;;;19.58;100.00;101146.44;5038486;28;20046;-85
2022/06/29 04:22:02;;;;;;;51.17;47.58;;;;;;;19.10;100.00;101145.41;5040754;28;20805;-87
2022/06/29 04:24:51;;;;;;;49.38;45.78;;;;;;;19.31;100.00;101142.94;5041425;28;20049;-86
2022/06/29 04:27:20;;;;;;;56.00;52.08;;;;;;;19.33;100.00;101144.28;5020843;28;20402;-86
2022/06/29 04:29:54;;;;;;;56.75;52.70;;;;;;;19.73;100.00;101139.56;5023909;28;20470;-86
2022/06/29 04:32:24;;;;;;;51.08;47.00;;;;;;;20.02;100.00;101142.78;5037196;28;20065;-85
2022/06/29 04:35:16;;;;;;;50.63;47.03;;;;;;;20.12;100.00;101143.66;5023691;28;20041;-86
2022/06/29 04:37:49;;;;;;;55.45;51.42;;;;;;;20.22;100.00;101142.91;5036947;28;20045;-87
2022/06/29 04:40:18;;;;;;;57.20;52.58;;;;;;;20.46;100.00;101142.53;5035872;28;20053;-86
2022/06/29 04:42:53;;;;;;;59.13;54.95;;;;;;;20.50;100.00;101154.41;5026594;28;20053;-86
2022/06/29 04:48:21;;;;;;;61.70;56.90;;;;;;;20.85;100.00;101142.19;4977796;28;20086;-86
2022/06/29 04:50:48;;;;;;;55.53;51.22;;;;;;;21.05;100.00;101143.06;5010129;28;20132;-85
2022/06/29 04:53:16;;;;;;;52.05;48.10;;;;;;;21.03;100.00;101153.34;5027769;28;20059;-87
2022/06/29 04:55:43;;;;;;;53.78;49.45;;;;;;;20.94;100.00;101148.72;5038334;28;20049;-86
2022/06/29 04:58:18;;;;;;;58.70;54.10;;;;;;;21.23;100.00;101154.47;5036163;28;20052;-86
2022/06/29 05:00:44;;;;;;;58.92;54.15;;;;;;;21.68;100.00;101158.34;5021519;28;20046;-86
2022/06/29 05:03:15;;;;;;;59.65;54.95;;;;;;;21.22;100.00;101159.06;5018808;28;20057;-86
2022/06/29 05:06:00;;;;;;;62.97;57.78;;;;;;;21.07;100.00;101166.31;5017253;28;20050;-86
2022/06/29 05:08:29;;;;;;;63.45;58.20;;;;;;;21.14;100.00;101164.16;5021483;28;20049;-87
2022/06/29 05:11:09;;;;;;;55.72;50.95;;;;;;;21.26;100.00;101162.03;5029145;28;20049;-86
2022/06/29 05:13:41;;;;;;;60.35;55.35;;;;;;;21.52;100.00;101162.13;5035833;28;20405;-87
2022/06/29 05:16:10;;;;;;;54.65;50.50;;;;;;;21.33;100.00;101159.91;5044489;28;20110;-86
2022/06/29 05:18:41;;;;;;;53.60;49.03;;;;;;;21.46;100.00;101158.59;5022887;28;20446;-87
2022/06/29 05:21:14;;;;;;;60.70;56.05;;;;;;;20.86;100.00;101154.63;5023553;28;20049;-86
2022/06/29 05:23:48;;;;;;;56.63;52.22;;;;;;;21.18;100.00;101147.16;5020548;28;20042;-86
2022/06/29 05:26:22;;;;;;;59.75;54.90;;;;;;;21.47;100.00;101158.31;5038127;28;20053;-86
2022/06/29 05:28:50;;;;;;;57.63;52.75;;;;;;;21.47;100.00;101154.81;5035539;28;20132;-85
2022/06/29 05:31:18;;;;;;;57.67;52.97;;;;;;;21.86;100.00;101147.00;5027042;28;20052;-85
2022/06/29 05:33:46;;;;;;;61.35;56.50;;;;;;;22.21;100.00;101150.78;5022672;28;20053;-86
2022/06/29 05:36:14;;;;;;;55.67;51.28;;;;;;;21.98;100.00;101148.63;5021610;28;20050;-86
2022/06/29 05:38:43;;;;;;;55.80;51.25;;;;;;;22.03;100.00;101144.03;5024619;28;20042;-86
2022/06/29 05:41:43;;;;;;;59.35;54.83;;;;;;;22.06;100.00;101156.16;5022315;28;20042;-86
2022/06/29 05:44:16;;;;;;;58.75;54.17;;;;;;;22.26;100.00;101152.66;5032000;28;20060;-86
2022/06/29 05:46:45;;;;;;;51.88;47.90;;;;;;;22.29;100.00;101161.03;5026486;28;20389;-86
2022/06/29 05:49:12;;;;;;;51.05;47.15;;;;;;;22.29;100.00;101152.13;5029413;28;20045;-86
2022/06/29 05:51:40;;;;;;;52.42;48.28;;;;;;;22.45;100.00;101152.88;5031869;28;20045;-86
2022/06/29 05:54:07;;;;;;;51.08;46.83;;;;;;;22.55;100.00;101148.28;5026931;28;20050;-85
2022/06/29 05:56:41;;;;;;;48.67;44.83;;;;;;;22.51;100.00;101157.19;5032061;28;20064;-87
2022/06/29 05:59:09;;;;;;;47.85;44.22;;;;;;;22.57;100.00;101159.63;5034294;28;20563;-86
2022/06/29 06:01:36;;;;;;;44.63;41.22;;;;;;;22.08;100.00;101154.00;5038474;28;20042;-85
2022/06/29 06:04:03;;;;;;;49.88;46.47;;;;;;;22.69;100.00;101156.59;5030063;28;20046;-86
2022/06/29 06:06:30;;;;;;;46.10;42.60;;;;;;;23.07;100.00;101140.75;5036794;28;20058;-85
2022/06/29 06:12:57;;;;;;;47.25;43.85;;;;;;;22.99;100.00;101141.34;5032992;28;20044;-89
2022/06/29 06:15:30;;;;;;;45.22;41.92;;;;;;;23.28;100.00;101136.84;5042817;28;20057;-87
2022/06/29 06:18:06;;;;;;;44.03;41.03;;;;;;;23.41;100.00;101131.88;5020624;28;20052;-87
2022/06/29 06:20:44;;;;;;;44.25;40.97;;;;;;;23.63;100.00;101137.69;5034078;28;20068;-84
2022/06/29 06:23:20;;;;;;;48.60;44.92;;;;;;;23.99;100.00;101135.50;5039622;28;20050;-86
2022/06/29 06:25:55;;;;;;;48.08;44.58;;;;;;;23.99;100.00;101138.22;5042848;28;20053;-87
2022/06/29 06:28:23;;;;;;;43.85;40.65;;;;;;;23.98;100.00;101143.94;5039152;28;20049;-84
2022/06/29 06:31:11;;;;;;;41.42;38.58;;;;;;;24.03;100.00;101141.16;5035629;28;20470;-85
2022/06/29 06:33:39;;;;;;;40.75;37.85;;;;;;;24.04;100.00;101134.66;5036189;28;20045;-85
2022/06/29 06:36:06;;;;;;;39.63;36.83;;;;;;;24.14;100.00;101131.81;5032300;28;20049;-85
2022/06/29 06:38:46;;;;;;;40.35;37.45;;;;;;;24.27;100.00;101130.34;5024152;28;20061;-86
2022/06/29 06:41:25;;;;;;;44.00;40.05;;;;;;;24.14;100.00;101145.38;5039530;28;20381;-85
2022/06/29 06:44:00;;;;;;;41.22;38.20;;;;;;;24.53;100.00;101138.22;5049611;28;20124;-86
2022/06/29 06:46:33;;;;;;;43.35;40.05;;;;;;;24.56;100.00;101132.22;5039106;28;20052;-86
2022/06/29 06:49:02;;;;;;;43.15;40.00;;;;;;;24.78;100.00;101134.38;5024539;28;20045;-85
2022/06/29 06:51:51;;;;;;;46.53;42.60;;;;;;;24.87;100.00;101129.91;5043037;28;20053;-86
2022/06/29 06:54:25;;;;;;;38.17;35.35;;;;;;;24.39;100.00;101129.97;5043434;28;20053;-85
2022/06/29 06:56:51;;;;;;;43.17;39.92;;;;;;;24.95;100.00;101123.84;5031685;28;20394;-85
2022/06/29 06:59:18;;;;;;;41.42;38.15;;;;;;;25.28;100.00;101115.81;5029406;28;20069;-87
2022/06/29 07:01:46;;;;;;;38.47;35.83;;;;;;;25.31;100.00;101123.38;5028731;28;20171;-87
2022/06/29 07:04:13;;;;;;;41.75;38.65;;;;;;;25.41;100.00;101123.19;5029379;28;20046;-86
2022/06/29 07:06:40;;;;;;;36.45;33.75;;;;;;;25.47;100.00;101118.50;5030945;28;20497;-86
2022/06/29 07:09:07;;;;;;;37.47;34.28;;;;;;;25.26;100.00;101120.72;5034010;28;20065;-85
2022/06/29 07:11:34;;;;;;;36.28;33.67;;;;;;;25.49;100.00;101121.72;5032498;28;20052;-86
2022/06/29 07:14:00;;;;;;;37.58;34.70;;;;;;;25.59;100.00;101119.63;5034446;28;20118;-86
2022/06/29 07:16:27;;;;;;;39.22;36.33;;;;;;;25.73;100.00;101121.63;5033113;28;20046;-86
2022/06/29 07:18:55;;;;;;;38.20;35.45;;;;;;;25.44;100.00;101125.31;5030524;28;20422;-86
2022/06/29 07:21:22;;;;;;;36.65;34.20;;;;;;;25.93;100.00;101120.47;5033440;28;20132;-85
2022/06/29 07:23:49;;;;;;;38.17;35.30;;;;;;;25.44;100.00;101130.75;5031755;28;20057;-87
2022/06/29 07:26:16;;;;;;;38.25;35.10;;;;;;;25.52;100.00;101127.38;5027997;28;20088;-86
2022/06/29 07:28:43;;;;;;;37.50;34.58;;;;;;;25.76;100.00;101129.19;5027909;28;20411;-85
2022/06/29 07:31:10;;;;;;;39.85;36.80;;;;;;;26.00;100.00;101121.72;5035124;28;20049;-85
2022/06/29 07:33:37;;;;;;;36.67;34.22;;;;;;;26.17;100.00;101126.56;5034937;28;20046;-87
2022/06/29 07:36:05;;;;;;;36.05;33.35;;;;;;;25.58;100.00;101128.91;5029296;28;20047;-85
2022/06/29 07:38:32;;;;;;;37.55;34.95;;;;;;;25.84;100.00;101122.25;5022893;28;20049;-86
2022/06/29 07:41:00;;;;;;;37.67;35.15;;;;;;;26.08;100.00;101116.66;5029349;28;20045;-86
2022/06/29 07:43:28;;;;;;;37.95;35.17;;;;;;;26.27;100.00;101128.28;5029042;28;20397;-85
2022/06/29 07:45:58;;;;;;;36.05;33.30;;;;;;;26.40;100.00;101130.19;5036098;28;20064;-86
2022/06/29 07:48:25;;;;;;;34.38;31.58;;;;;;;26.22;100.00;101128.38;5032569;28;20049;-86
2022/06/29 07:50:53;;;;;;;34.67;32.13;;;;;;;26.47;100.00;101124.34;5031558;28;20041;-86
2022/06/29 07:53:21;;;;;;;33.75;31.15;;;;;;;26.66;100.00;101119.63;5037108;28;20131;-86
2022/06/29 07:55:49;;;;;;;35.45;32.55;;;;;;;26.84;100.00;101126.06;5031056;28;20053;-87
2022/06/29 07:58:17;;;;;;;36.45;33.75;;;;;;;27.12;100.00;101131.47;5030411;28;20068;-86
2022/06/29 08:00:44;;;;;;;36.35;33.75;;;;;;;27.01;100.00;101133.59;5028527;28;20046;-85
2022/06/29 08:03:11;;;;;;;34.47;31.80;;;;;;;26.84;100.00;101126.06;5028024;28;20393;-86
2022/06/29 08:05:39;;;;;;;34.13;31.45;;;;;;;27.02;100.00;101121.59;5032712;28;20060;-86
2022/06/29 08:08:07;;;;;;;32.78;30.42;;;;;;;27.12;100.00;101126.81;5033894;28;20050;-86
2022/06/29 08:10:35;;;;;;;34.33;31.73;;;;;;;26.91;100.00;101126.44;5033527;28;20481;-85
2022/06/29 08:13:02;;;;;;;37.42;34.83;;;;;;;27.21;100.00;101124.19;5033079;28;20466;-86
2022/06/29 08:15:29;;;;;;;38.15;35.53;;;;;;;27.20;100.00;101121.75;5028031;28;20046;-86
2022/06/29 08:17:57;;;;;;;33.83;31.25;;;;;;;26.77;100.00;101128.38;5029198;28;20049;-86
2022/06/29 08:20:23;;;;;;;34.90;32.30;;;;;;;27.00;100.00;101123.81;5029040;28;20046;-87
2022/06/29 08:22:50;;;;;;;37.97;35.28;;;;;;;27.57;100.00;101117.88;5034178;28;20049;-86
2022/06/29 08:25:18;;;;;;;34.35;31.85;;;;;;;27.77;100.00;101130.19;5030828;28;20053;-87
2022/06/29 08:27:52;;;;;;;33.13;30.88;;;;;;;27.55;100.00;101128.28;5033608;28;20056;-87
2022/06/29 08:30:19;;;;;;;32.22;30.02;;;;;;;27.23;100.00;101126.59;5032690;28;20081;-87
2022/06/29 08:32:46;;;;;;;33.30;31.10;;;;;;;28.11;100.00;101124.16;5031887;28;20056;-87
2022/06/29 08:35:14;;;;;;;37.92;35.33;;;;;;;28.40;100.00;101115.41;5036159;28;20041;-86
2022/06/29 08:37:42;;;;;;;30.40;28.45;;;;;;;28.03;100.00;101125.72;5033832;28;20038;-86
2022/06/29 08:40:11;;;;;;;34.13;31.63;;;;;;;27.68;100.00;101138.31;5033148;28;20045;-86
2022/06/29 08:42:39;;;;;;;33.65;31.17;;;;;;;27.93;100.00;101117.81;5035497;28;20060;-86
2022/06/29 08:45:09;;;;;;;31.75;29.35;;;;;;;27.86;100.00;101114.69;5033738;28;20041;-86
2022/06/29 08:47:37;;;;;;;32.30;29.75;;;;;;;27.51;100.00;101121.84;5031878;28;20041;-85
2022/06/29 08:50:05;;;;;;;35.50;32.97;;;;;;;28.09;100.00;101124.47;5032366;28;20145;-87
2022/06/29 08:52:35;;;;;;;37.10;34.50;;;;;;;28.52;100.00;101123.03;5032904;28;20049;-86
2022/06/29 08:55:04;;;;;;;33.92;31.63;;;;;;;28.46;100.00;101111.44;5031346;28;20056;-85
2022/06/29 08:57:31;;;;;;;31.80;29.60;;;;;;;28.50;100.00;101115.19;5033441;28;20068;-87
2022/06/29 08:59:58;;;;;;;33.40;31.10;;;;;;;28.43;100.00;101111.28;5029434;28;20060;-86
2022/06/29 09:02:26;;;;;;;31.13;28.88;;;;;;;28.39;100.00;101115.75;5035699;28;20096;-86
2022/06/29 09:04:54;;;;;;;28.73;26.40;;;;;;;28.36;100.00;101117.19;5033688;28;20060;-86
2022/06/29 09:07:20;;;;;;;36.08;33.70;;;;;;;28.56;100.00;101106.81;5032130;28;20058;-85
2022/06/29 09:10:01;;;;;;;30.27;28.35;;;;;;;28.87;100.00;101110.25;5029979;28;20038;-86
2022/06/29 09:12:29;;;;;;;33.10;30.50;;;;;;;29.10;100.00;101121.06;5029406;28;20045;-86
2022/06/29 09:14:57;;;;;;;31.30;29.20;;;;;;;27.39;100.00;101125.94;5026396;28;20045;-87
2022/06/29 09:17:26;;;;;;;31.85;29.52;;;;;;;28.28;100.00;101110.56;5022889;28;20115;-87
2022/06/29 09:19:54;;;;;;;32.15;29.75;;;;;;;28.58;100.00;101112.78;5031037;28;20071;-87
2022/06/29 09:22:21;;;;;;;27.20;25.10;;;;;;;28.16;100.00;101109.56;5027086;28;20460;-86
2022/06/29 09:24:49;;;;;;;28.92;26.90;;;;;;;28.83;100.00;101117.47;5029981;28;20520;-86
2022/06/29 09:27:17;;;;;;;28.80;26.73;;;;;;;28.73;100.00;101107.66;5031770;28;20195;-87
2022/06/29 09:29:44;;;;;;;30.42;28.33;;;;;;;28.76;100.00;101104.28;5025719;28;20053;-87
2022/06/29 09:32:15;;;;;;;29.55;27.42;;;;;;;29.44;100.00;101104.66;5027302;28;20053;-87
2022/06/29 09:34:46;;;;;;;31.55;29.38;;;;;;;29.17;100.00;101105.00;5028831;28;20077;-86
2022/06/29 09:37:16;;;;;;;30.98;29.00;;;;;;;28.86;100.00;101107.81;5021548;28;20053;-87
2022/06/29 09:39:45;;;;;;;29.98;27.80;;;;;;;29.25;100.00;101108.84;5029663;28;20374;-87
2022/06/29 09:42:13;;;;;;;36.03;33.67;;;;;;;29.37;100.00;101101.59;5028777;28;20050;-86
2022/06/29 09:44:41;;;;;;;35.85;33.55;;;;;;;29.68;96.92;101092.38;5028870;28;20060;-85
2022/06/29 09:47:11;;;;;;;37.20;34.92;;;;;;;30.03;90.58;101100.50;5023491;28;20395;-86
2022/06/29 09:49:39;;;;;;;33.03;30.75;;;;;;;29.18;100.00;101096.47;5023176;28;20397;-84
2022/06/29 09:52:08;;;;;;;30.45;28.35;;;;;;;29.33;89.82;101086.94;5031722;28;20389;-83
2022/06/29 09:54:38;;;;;;;31.92;29.35;;;;;;;28.27;100.00;101084.38;5028070;28;20061;-83
2022/06/29 09:57:07;;;;;;;31.33;28.45;;;;;;;29.24;100.00;101088.91;5024948;28;20142;-84
2022/06/29 10:02:36;;;;;;;32.40;29.63;;;;;;;29.80;100.00;101083.50;5027439;28;20064;-85
2022/06/29 10:05:05;;;;;;;33.13;30.70;;;;;;;31.07;89.27;101082.63;5025096;28;20049;-83
2022/06/29 10:07:35;;;;;;;31.25;29.02;;;;;;;29.89;100.00;101081.53;5030557;28;20478;-83
2022/06/29 10:10:05;;;;;;;31.83;29.52;;;;;;;30.59;92.48;101082.00;5022097;28;20393;-84
2022/06/29 10:16:05;;;;;;;32.70;30.30;;;;;;;28.83;100.00;101084.66;4968253;28;20102;-87
2022/06/29 10:18:46;;;;;;;34.17;31.67;;;;;;;29.78;97.49;101072.88;5023912;28;20061;-84
2022/06/29 10:21:15;;;;;;;33.55;30.55;;;;;;;30.80;74.52;101076.56;5021986;28;20042;-85
2022/06/29 10:23:51;;;;;;;35.80;33.20;;;;;;;30.07;96.51;101083.06;5027792;28;20139;-88
2022/06/29 10:26:46;;;;;;;33.83;31.42;;;;;;;31.56;73.16;101078.16;5028931;28;20049;-85
2022/06/29 10:29:36;;;;;;;36.33;33.60;;;;;;;31.12;68.49;101077.75;5018402;28;20053;-84
2022/06/29 10:32:20;;;;;;;37.03;34.63;;;;;;;32.01;63.34;101074.56;5022346;28;20056;-87
2022/06/29 10:35:08;;;;;;;36.75;34.30;;;;;;;32.02;58.46;101072.66;5030201;28;20042;-87
2022/06/29 10:37:47;;;;;;;35.45;32.70;;;;;;;32.09;54.51;101070.13;5025519;28;20064;-85
2022/06/29 10:40:22;;;;;;;31.63;29.27;;;;;;;32.51;55.28;101059.69;5032646;28;20050;-83
2022/06/29 10:43:09;;;;;;;33.25;30.38;;;;;;;32.33;55.86;101069.31;5018972;28;20450;-83
2022/06/29 10:45:41;;;;;;;32.10;29.80;;;;;;;31.89;59.16;101072.66;5033543;28;20144;-85
2022/06/29 10:48:20;;;;;;;33.20;30.75;;;;;;;31.41;66.71;101074.13;5035543;28;20045;-86
2022/06/29 10:50:48;;;;;;;32.40;30.30;;;;;;;30.30;77.95;101071.88;5026710;28;20053;-85
2022/06/29 10:53:18;;;;;;;33.83;31.20;;;;;;;31.48;59.69;101068.09;5021579;28;20037;-82
2022/06/29 10:55:50;;;;;;;31.63;29.52;;;;;;;31.01;74.30;101071.88;5035321;28;20046;-83
2022/06/29 10:58:18;;;;;;;29.73;27.83;;;;;;;29.99;89.55;101064.75;5032809;28;20060;-83
2022/06/29 11:00:46;;;;;;;33.72;31.27;;;;;;;32.07;55.76;101055.94;5030054;28;20053;-83
2022/06/29 11:03:22;;;;;;;31.08;28.95;;;;;;;32.15;49.95;101055.81;5024862;28;20060;-82
2022/06/29 11:15:39;;;;;;;37.25;34.95;;;;;;;32.44;49.57;101053.13;5025469;28;20057;-84
2022/06/29 11:16:56;;;;;;;35.78;32.38;;;;;;;31.58;53.74;101061.34;5025658;28;20045;-83
2022/06/29 11:19:29;;;;;;;34.22;31.83;;;;;;;31.71;48.56;101060.22;5033559;28;20461;-83
2022/06/29 11:22:15;;;;;;;33.10;30.58;;;;;;;32.30;49.40;101054.31;5029009;28;20438;-83
2022/06/29 11:24:58;;;;;;;32.47;29.85;;;;;;;31.63;48.71;101048.22;5026668;28;20057;-82
2022/06/29 11:27:35;;;;;;;31.73;29.13;;;;;;;32.70;44.92;101050.03;5031850;28;20053;-84
2022/06/29 11:30:02;;;;;;;32.60;30.50;;;;;;;32.89;41.47;101038.38;5022474;28;20054;-86
2022/06/29 11:32:39;;;;;;;32.15;30.05;;;;;;;32.29;55.22;101038.19;5030568;28;20136;-83
2022/06/29 11:35:08;;;;;;;39.05;36.65;;;;;;;31.63;65.35;101041.94;5023465;28;20477;-87
2022/06/29 11:37:34;;;;;;;35.67;33.22;;;;;;;31.68;53.00;101037.03;5024675;28;20054;-83
2022/06/29 11:40:01;;;;;;;38.05;35.45;;;;;;;30.64;79.13;101043.44;5023728;28;20042;-84
2022/06/29 11:45:17;;;;;;;32.33;30.20;;;;;;;32.53;53.05;101015.34;5023226;28;20211;-87
2022/06/29 11:47:54;;;;;;;34.35;31.95;;;;;;;32.40;40.16;101020.84;5028396;28;20485;-83
2022/06/29 11:50:21;;;;;;;37.30;34.92;;;;;;;32.74;42.40;101015.19;5027209;28;20041;-84
2022/06/29 11:52:50;;;;;;;37.88;35.30;;;;;;;32.61;43.91;101011.69;5038250;28;20058;-87
2022/06/29 11:55:38;;;;;;;42.20;39.63;;;;;;;32.89;41.41;101005.38;5029012;28;20478;-84
2022/06/29 11:58:09;;;;;;;32.88;30.67;;;;;;;31.98;48.89;101009.34;5033943;28;20128;-84
2022/06/29 12:00:38;;;;;;;32.67;30.58;;;;;;;33.11;37.07;100999.34;5024584;28;20054;-84
2022/06/29 12:03:05;;;;;;;36.22;34.05;;;;;;;33.27;36.75;100993.88;5028191;28;20497;-83